sensor_id;sensor_type;location;lat;lon;timestamp;P1;durP1;ratioP1;P2;durP2;ratioP2
45274;SDS011;31019;43.780;25.948;2023-04-10T00:00:03;105.45;;;94.30;;
45274;SDS011;31019;43.780;25.948;2023-04-10T00:02:31;98.00;;;84.45;;
45274;SDS011;31019;43.780;25.948;2023-04-10T00:05:00;100.32;;;89.90;;
45274;SDS011;31019;43.780;25.948;2023-04-10T00:07:29;90.97;;;81.35;;
45274;SDS011;31019;43.780;25.948;2023-04-10T00:09:57;86.07;;;71.15;;
45274;SDS011;31019;43.780;25.948;2023-04-10T00:12:24;82.30;;;73.38;;
45274;SDS011;31019;43.780;25.948;2023-04-10T00:14:51;96.32;;;86.53;;
45274;SDS011;31019;43.780;25.948;2023-04-10T00:17:20;102.38;;;90.47;;
45274;SDS011;31019;43.780;25.948;2023-04-10T00:19:47;93.00;;;80.60;;
45274;SDS011;31019;43.780;25.948;2023-04-10T00:22:14;85.85;;;74.43;;
45274;SDS011;31019;43.780;25.948;2023-04-10T00:24:41;93.43;;;83.47;;
45274;SDS011;31019;43.780;25.948;2023-04-10T00:27:10;116.95;;;90.13;;
45274;SDS011;31019;43.780;25.948;2023-04-10T00:29:40;191.55;;;106.45;;
45274;SDS011;31019;43.780;25.948;2023-04-10T00:32:07;91.65;;;81.90;;
45274;SDS011;31019;43.780;25.948;2023-04-10T00:34:36;103.18;;;92.38;;
45274;SDS011;31019;43.780;25.948;2023-04-10T00:37:03;96.25;;;85.93;;
45274;SDS011;31019;43.780;25.948;2023-04-10T00:39:30;131.02;;;90.65;;
45274;SDS011;31019;43.780;25.948;2023-04-10T00:41:57;173.70;;;113.85;;
45274;SDS011;31019;43.780;25.948;2023-04-10T00:44:25;119.80;;;102.22;;
45274;SDS011;31019;43.780;25.948;2023-04-10T00:46:52;113.05;;;86.38;;
45274;SDS011;31019;43.780;25.948;2023-04-10T00:49:20;132.88;;;97.47;;
45274;SDS011;31019;43.780;25.948;2023-04-10T00:51:48;105.82;;;86.18;;
45274;SDS011;31019;43.780;25.948;2023-04-10T00:54:16;112.68;;;89.60;;
45274;SDS011;31019;43.780;25.948;2023-04-10T00:56:44;138.45;;;97.13;;
45274;SDS011;31019;43.780;25.948;2023-04-10T00:59:13;144.35;;;104.57;;
45274;SDS011;31019;43.780;25.948;2023-04-10T01:01:40;122.78;;;101.82;;
45274;SDS011;31019;43.780;25.948;2023-04-10T01:04:07;110.53;;;93.03;;
45274;SDS011;31019;43.780;25.948;2023-04-10T01:06:41;119.57;;;107.05;;
45274;SDS011;31019;43.780;25.948;2023-04-10T01:09:20;108.40;;;97.20;;
45274;SDS011;31019;43.780;25.948;2023-04-10T01:12:07;123.93;;;111.97;;
45274;SDS011;31019;43.780;25.948;2023-04-10T01:14:42;110.13;;;98.60;;
45274;SDS011;31019;43.780;25.948;2023-04-10T01:17:17;103.45;;;92.85;;
45274;SDS011;31019;43.780;25.948;2023-04-10T01:19:56;110.82;;;98.78;;
45274;SDS011;31019;43.780;25.948;2023-04-10T01:22:34;103.65;;;92.70;;
45274;SDS011;31019;43.780;25.948;2023-04-10T01:25:16;100.97;;;90.47;;
45274;SDS011;31019;43.780;25.948;2023-04-10T01:28:13;104.22;;;93.40;;
45274;SDS011;31019;43.780;25.948;2023-04-10T01:31:02;97.00;;;87.15;;
45274;SDS011;31019;43.780;25.948;2023-04-10T01:33:35;113.18;;;102.25;;
45274;SDS011;31019;43.780;25.948;2023-04-10T01:36:06;122.13;;;110.78;;
45274;SDS011;31019;43.780;25.948;2023-04-10T01:38:35;135.82;;;120.90;;
45274;SDS011;31019;43.780;25.948;2023-04-10T01:41:08;134.57;;;118.45;;
45274;SDS011;31019;43.780;25.948;2023-04-10T01:46:08;102.78;;;92.40;;
45274;SDS011;31019;43.780;25.948;2023-04-10T01:48:38;97.88;;;87.93;;
45274;SDS011;31019;43.780;25.948;2023-04-10T01:51:06;118.15;;;105.82;;
45274;SDS011;31019;43.780;25.948;2023-04-10T01:53:35;119.18;;;106.55;;
45274;SDS011;31019;43.780;25.948;2023-04-10T01:56:04;112.82;;;90.72;;
45274;SDS011;31019;43.780;25.948;2023-04-10T01:58:33;112.63;;;93.05;;
45274;SDS011;31019;43.780;25.948;2023-04-10T02:01:01;336.08;;;159.32;;
45274;SDS011;31019;43.780;25.948;2023-04-10T02:03:30;238.75;;;141.23;;
45274;SDS011;31019;43.780;25.948;2023-04-10T02:06:00;247.15;;;142.35;;
45274;SDS011;31019;43.780;25.948;2023-04-10T02:08:39;243.63;;;136.93;;
45274;SDS011;31019;43.780;25.948;2023-04-10T02:11:14;257.48;;;139.98;;
45274;SDS011;31019;43.780;25.948;2023-04-10T02:16:19;171.63;;;122.95;;
45274;SDS011;31019;43.780;25.948;2023-04-10T02:18:49;144.60;;;104.10;;
45274;SDS011;31019;43.780;25.948;2023-04-10T02:21:18;133.00;;;99.60;;
45274;SDS011;31019;43.780;25.948;2023-04-10T02:23:45;130.73;;;100.30;;
45274;SDS011;31019;43.780;25.948;2023-04-10T02:26:13;127.30;;;92.93;;
45274;SDS011;31019;43.780;25.948;2023-04-10T02:28:40;109.45;;;90.10;;
45274;SDS011;31019;43.780;25.948;2023-04-10T02:31:07;111.55;;;98.07;;
45274;SDS011;31019;43.780;25.948;2023-04-10T02:33:34;106.95;;;84.10;;
45274;SDS011;31019;43.780;25.948;2023-04-10T02:36:03;109.80;;;85.15;;
45274;SDS011;31019;43.780;25.948;2023-04-10T02:38:30;101.80;;;84.15;;
45274;SDS011;31019;43.780;25.948;2023-04-10T02:40:58;96.90;;;77.45;;
45274;SDS011;31019;43.780;25.948;2023-04-10T02:43:27;112.05;;;92.75;;
45274;SDS011;31019;43.780;25.948;2023-04-10T02:45:54;98.28;;;78.63;;
45274;SDS011;31019;43.780;25.948;2023-04-10T02:48:21;90.78;;;72.65;;
45274;SDS011;31019;43.780;25.948;2023-04-10T02:50:48;93.78;;;76.35;;
45274;SDS011;31019;43.780;25.948;2023-04-10T02:53:22;83.82;;;71.00;;
45274;SDS011;31019;43.780;25.948;2023-04-10T02:55:51;97.65;;;78.38;;
45274;SDS011;31019;43.780;25.948;2023-04-10T02:58:19;104.75;;;85.28;;
45274;SDS011;31019;43.780;25.948;2023-04-10T03:00:47;99.13;;;88.18;;
45274;SDS011;31019;43.780;25.948;2023-04-10T03:03:14;85.03;;;72.90;;
45274;SDS011;31019;43.780;25.948;2023-04-10T03:05:42;82.50;;;66.75;;
45274;SDS011;31019;43.780;25.948;2023-04-10T03:08:11;80.40;;;67.93;;
45274;SDS011;31019;43.780;25.948;2023-04-10T03:10:41;79.32;;;68.22;;
45274;SDS011;31019;43.780;25.948;2023-04-10T03:13:08;83.70;;;71.28;;
45274;SDS011;31019;43.780;25.948;2023-04-10T03:15:37;79.40;;;70.90;;
45274;SDS011;31019;43.780;25.948;2023-04-10T03:18:05;85.43;;;73.05;;
45274;SDS011;31019;43.780;25.948;2023-04-10T03:20:34;83.53;;;66.85;;
45274;SDS011;31019;43.780;25.948;2023-04-10T03:23:01;82.15;;;71.13;;
45274;SDS011;31019;43.780;25.948;2023-04-10T03:25:28;79.75;;;68.00;;
45274;SDS011;31019;43.780;25.948;2023-04-10T03:27:58;90.00;;;80.55;;
45274;SDS011;31019;43.780;25.948;2023-04-10T03:30:31;84.72;;;74.28;;
45274;SDS011;31019;43.780;25.948;2023-04-10T03:32:59;83.38;;;74.32;;
45274;SDS011;31019;43.780;25.948;2023-04-10T03:35:26;81.82;;;73.05;;
45274;SDS011;31019;43.780;25.948;2023-04-10T03:37:55;88.03;;;78.55;;
45274;SDS011;31019;43.780;25.948;2023-04-10T03:40:22;79.30;;;70.15;;
45274;SDS011;31019;43.780;25.948;2023-04-10T03:42:50;85.90;;;76.60;;
45274;SDS011;31019;43.780;25.948;2023-04-10T03:45:20;86.57;;;77.10;;
45274;SDS011;31019;43.780;25.948;2023-04-10T03:47:47;82.60;;;71.60;;
45274;SDS011;31019;43.780;25.948;2023-04-10T03:50:19;85.65;;;76.40;;
45274;SDS011;31019;43.780;25.948;2023-04-10T03:53:01;109.72;;;95.10;;
45274;SDS011;31019;43.780;25.948;2023-04-10T03:55:52;95.95;;;85.70;;
45274;SDS011;31019;43.780;25.948;2023-04-10T03:58:30;91.75;;;80.63;;
45274;SDS011;31019;43.780;25.948;2023-04-10T04:04:01;93.40;;;82.70;;
45274;SDS011;31019;43.780;25.948;2023-04-10T04:06:29;92.03;;;82.00;;
45274;SDS011;31019;43.780;25.948;2023-04-10T04:08:56;89.75;;;77.78;;
45274;SDS011;31019;43.780;25.948;2023-04-10T04:11:48;85.70;;;75.57;;
45274;SDS011;31019;43.780;25.948;2023-04-10T04:14:34;97.55;;;82.85;;
45274;SDS011;31019;43.780;25.948;2023-04-10T04:17:04;97.60;;;87.47;;
45274;SDS011;31019;43.780;25.948;2023-04-10T04:22:16;93.78;;;79.95;;
45274;SDS011;31019;43.780;25.948;2023-04-10T04:24:44;98.78;;;82.43;;
45274;SDS011;31019;43.780;25.948;2023-04-10T04:27:12;92.38;;;82.03;;
45274;SDS011;31019;43.780;25.948;2023-04-10T04:29:39;95.65;;;79.53;;
45274;SDS011;31019;43.780;25.948;2023-04-10T04:32:08;97.65;;;85.70;;
45274;SDS011;31019;43.780;25.948;2023-04-10T04:34:38;97.55;;;85.25;;
45274;SDS011;31019;43.780;25.948;2023-04-10T04:37:31;99.75;;;83.15;;
45274;SDS011;31019;43.780;25.948;2023-04-10T04:40:39;92.90;;;81.95;;
45274;SDS011;31019;43.780;25.948;2023-04-10T04:43:49;89.55;;;77.80;;
45274;SDS011;31019;43.780;25.948;2023-04-10T04:47:14;94.60;;;84.53;;
45274;SDS011;31019;43.780;25.948;2023-04-10T04:50:36;89.53;;;79.78;;
45274;SDS011;31019;43.780;25.948;2023-04-10T04:53:51;87.03;;;77.35;;
45274;SDS011;31019;43.780;25.948;2023-04-10T05:03:09;104.83;;;93.80;;
45274;SDS011;31019;43.780;25.948;2023-04-10T05:09:03;103.03;;;91.85;;
45274;SDS011;31019;43.780;25.948;2023-04-10T05:11:30;102.93;;;91.97;;
45274;SDS011;31019;43.780;25.948;2023-04-10T05:13:57;113.97;;;101.25;;
45274;SDS011;31019;43.780;25.948;2023-04-10T05:16:26;111.90;;;100.53;;
45274;SDS011;31019;43.780;25.948;2023-04-10T05:18:53;117.90;;;105.97;;
45274;SDS011;31019;43.780;25.948;2023-04-10T05:21:20;111.82;;;100.68;;
45274;SDS011;31019;43.780;25.948;2023-04-10T05:23:47;111.63;;;99.97;;
45274;SDS011;31019;43.780;25.948;2023-04-10T05:26:16;106.22;;;95.53;;
45274;SDS011;31019;43.780;25.948;2023-04-10T05:28:44;115.32;;;103.57;;
45274;SDS011;31019;43.780;25.948;2023-04-10T05:31:11;114.47;;;103.22;;
45274;SDS011;31019;43.780;25.948;2023-04-10T05:33:39;101.25;;;91.25;;
45274;SDS011;31019;43.780;25.948;2023-04-10T05:36:06;92.40;;;83.05;;
45274;SDS011;31019;43.780;25.948;2023-04-10T05:38:37;98.47;;;88.47;;
45274;SDS011;31019;43.780;25.948;2023-04-10T05:41:04;90.88;;;81.30;;
45274;SDS011;31019;43.780;25.948;2023-04-10T05:43:33;94.53;;;84.95;;
45274;SDS011;31019;43.780;25.948;2023-04-10T05:46:00;103.22;;;92.82;;
45274;SDS011;31019;43.780;25.948;2023-04-10T05:48:27;83.68;;;74.45;;
45274;SDS011;31019;43.780;25.948;2023-04-10T05:50:54;74.57;;;66.57;;
45274;SDS011;31019;43.780;25.948;2023-04-10T05:53:23;75.40;;;67.00;;
45274;SDS011;31019;43.780;25.948;2023-04-10T05:55:55;71.30;;;62.63;;
45274;SDS011;31019;43.780;25.948;2023-04-10T05:58:26;67.50;;;60.47;;
45274;SDS011;31019;43.780;25.948;2023-04-10T06:00:55;70.90;;;59.17;;
45274;SDS011;31019;43.780;25.948;2023-04-10T06:03:22;66.60;;;56.20;;
45274;SDS011;31019;43.780;25.948;2023-04-10T06:05:51;60.05;;;52.58;;
45274;SDS011;31019;43.780;25.948;2023-04-10T06:08:18;61.38;;;53.92;;
45274;SDS011;31019;43.780;25.948;2023-04-10T06:10:47;62.25;;;54.03;;
45274;SDS011;31019;43.780;25.948;2023-04-10T06:13:14;62.97;;;56.10;;
45274;SDS011;31019;43.780;25.948;2023-04-10T06:15:41;55.22;;;49.28;;
45274;SDS011;31019;43.780;25.948;2023-04-10T06:18:09;59.85;;;52.75;;
45274;SDS011;31019;43.780;25.948;2023-04-10T06:20:36;62.83;;;55.92;;
45274;SDS011;31019;43.780;25.948;2023-04-10T06:23:09;61.83;;;55.20;;
45274;SDS011;31019;43.780;25.948;2023-04-10T06:25:37;56.58;;;50.53;;
45274;SDS011;31019;43.780;25.948;2023-04-10T06:28:04;60.75;;;49.63;;
45274;SDS011;31019;43.780;25.948;2023-04-10T06:30:31;56.08;;;47.35;;
45274;SDS011;31019;43.780;25.948;2023-04-10T06:33:01;56.72;;;50.58;;
45274;SDS011;31019;43.780;25.948;2023-04-10T06:35:29;56.33;;;47.58;;
45274;SDS011;31019;43.780;25.948;2023-04-10T06:37:59;56.28;;;48.10;;
45274;SDS011;31019;43.780;25.948;2023-04-10T06:40:27;58.05;;;49.30;;
45274;SDS011;31019;43.780;25.948;2023-04-10T06:42:57;62.30;;;51.72;;
45274;SDS011;31019;43.780;25.948;2023-04-10T06:45:32;54.75;;;45.22;;
45274;SDS011;31019;43.780;25.948;2023-04-10T06:47:59;51.42;;;45.03;;
45274;SDS011;31019;43.780;25.948;2023-04-10T06:50:27;47.53;;;41.22;;
45274;SDS011;31019;43.780;25.948;2023-04-10T06:52:55;57.05;;;45.58;;
45274;SDS011;31019;43.780;25.948;2023-04-10T06:55:26;47.47;;;42.30;;
45274;SDS011;31019;43.780;25.948;2023-04-10T06:57:53;55.30;;;45.85;;
45274;SDS011;31019;43.780;25.948;2023-04-10T07:00:20;53.40;;;47.70;;
45274;SDS011;31019;43.780;25.948;2023-04-10T07:02:48;53.67;;;47.55;;
45274;SDS011;31019;43.780;25.948;2023-04-10T07:05:15;51.67;;;44.75;;
45274;SDS011;31019;43.780;25.948;2023-04-10T07:07:42;52.33;;;46.72;;
45274;SDS011;31019;43.780;25.948;2023-04-10T07:10:13;52.10;;;46.13;;
45274;SDS011;31019;43.780;25.948;2023-04-10T07:12:40;52.40;;;43.42;;
45274;SDS011;31019;43.780;25.948;2023-04-10T07:15:07;50.17;;;44.75;;
45274;SDS011;31019;43.780;25.948;2023-04-10T07:17:38;53.35;;;47.28;;
45274;SDS011;31019;43.780;25.948;2023-04-10T07:20:05;54.13;;;48.00;;
45274;SDS011;31019;43.780;25.948;2023-04-10T07:22:33;50.88;;;41.97;;
45274;SDS011;31019;43.780;25.948;2023-04-10T07:25:00;42.90;;;37.67;;
45274;SDS011;31019;43.780;25.948;2023-04-10T07:27:29;46.65;;;41.45;;
45274;SDS011;31019;43.780;25.948;2023-04-10T07:30:00;45.55;;;38.92;;
45274;SDS011;31019;43.780;25.948;2023-04-10T07:32:27;42.85;;;37.38;;
45274;SDS011;31019;43.780;25.948;2023-04-10T07:34:54;43.55;;;38.85;;
45274;SDS011;31019;43.780;25.948;2023-04-10T07:37:21;40.65;;;36.33;;
45274;SDS011;31019;43.780;25.948;2023-04-10T07:39:49;39.13;;;34.97;;
45274;SDS011;31019;43.780;25.948;2023-04-10T07:42:16;40.80;;;36.60;;
45274;SDS011;31019;43.780;25.948;2023-04-10T07:44:44;43.55;;;38.47;;
45274;SDS011;31019;43.780;25.948;2023-04-10T07:47:11;43.63;;;38.95;;
45274;SDS011;31019;43.780;25.948;2023-04-10T07:49:38;42.90;;;38.30;;
45274;SDS011;31019;43.780;25.948;2023-04-10T07:52:06;42.15;;;37.65;;
45274;SDS011;31019;43.780;25.948;2023-04-10T07:54:36;42.15;;;37.72;;
45274;SDS011;31019;43.780;25.948;2023-04-10T07:57:17;45.05;;;40.30;;
45274;SDS011;31019;43.780;25.948;2023-04-10T08:00:22;42.45;;;37.95;;
45274;SDS011;31019;43.780;25.948;2023-04-10T08:06:54;38.15;;;34.13;;
45274;SDS011;31019;43.780;25.948;2023-04-10T08:09:46;42.83;;;38.22;;
45274;SDS011;31019;43.780;25.948;2023-04-10T08:12:49;39.28;;;35.13;;
45274;SDS011;31019;43.780;25.948;2023-04-10T08:22:01;39.17;;;35.00;;
45274;SDS011;31019;43.780;25.948;2023-04-10T08:24:59;39.15;;;34.83;;
45274;SDS011;31019;43.780;25.948;2023-04-10T08:27:26;39.92;;;35.55;;
45274;SDS011;31019;43.780;25.948;2023-04-10T08:29:54;43.38;;;39.03;;
45274;SDS011;31019;43.780;25.948;2023-04-10T08:32:21;37.22;;;33.30;;
45274;SDS011;31019;43.780;25.948;2023-04-10T08:34:51;40.35;;;35.92;;
45274;SDS011;31019;43.780;25.948;2023-04-10T08:37:19;41.20;;;35.03;;
45274;SDS011;31019;43.780;25.948;2023-04-10T08:39:59;42.60;;;38.30;;
45274;SDS011;31019;43.780;25.948;2023-04-10T08:42:27;41.22;;;37.03;;
45274;SDS011;31019;43.780;25.948;2023-04-10T08:44:56;43.65;;;39.35;;
45274;SDS011;31019;43.780;25.948;2023-04-10T08:47:23;42.03;;;37.53;;
45274;SDS011;31019;43.780;25.948;2023-04-10T08:49:55;45.22;;;40.38;;
45274;SDS011;31019;43.780;25.948;2023-04-10T08:52:25;44.65;;;39.28;;
45274;SDS011;31019;43.780;25.948;2023-04-10T08:55:06;42.65;;;38.38;;
45274;SDS011;31019;43.780;25.948;2023-04-10T08:57:38;40.42;;;36.22;;
45274;SDS011;31019;43.780;25.948;2023-04-10T09:00:07;41.10;;;36.72;;
45274;SDS011;31019;43.780;25.948;2023-04-10T09:02:37;36.58;;;32.78;;
45274;SDS011;31019;43.780;25.948;2023-04-10T09:05:08;39.03;;;34.78;;
45274;SDS011;31019;43.780;25.948;2023-04-10T09:07:39;42.70;;;37.10;;
45274;SDS011;31019;43.780;25.948;2023-04-10T09:10:07;41.88;;;37.30;;
45274;SDS011;31019;43.780;25.948;2023-04-10T09:12:44;39.42;;;35.40;;
45274;SDS011;31019;43.780;25.948;2023-04-10T09:15:13;39.75;;;35.58;;
45274;SDS011;31019;43.780;25.948;2023-04-10T09:17:53;37.22;;;33.28;;
45274;SDS011;31019;43.780;25.948;2023-04-10T09:20:24;37.22;;;33.42;;
45274;SDS011;31019;43.780;25.948;2023-04-10T09:22:54;32.95;;;29.65;;
45274;SDS011;31019;43.780;25.948;2023-04-10T09:25:28;33.03;;;29.63;;
45274;SDS011;31019;43.780;25.948;2023-04-10T09:28:02;33.40;;;30.13;;
45274;SDS011;31019;43.780;25.948;2023-04-10T09:30:33;37.38;;;33.70;;
45274;SDS011;31019;43.780;25.948;2023-04-10T09:33:02;34.78;;;31.23;;
45274;SDS011;31019;43.780;25.948;2023-04-10T09:35:46;36.38;;;32.88;;
45274;SDS011;31019;43.780;25.948;2023-04-10T09:38:15;31.80;;;28.83;;
45274;SDS011;31019;43.780;25.948;2023-04-10T09:40:43;34.08;;;30.13;;
45274;SDS011;31019;43.780;25.948;2023-04-10T09:43:21;34.65;;;31.45;;
45274;SDS011;31019;43.780;25.948;2023-04-10T09:45:49;35.58;;;32.17;;
45274;SDS011;31019;43.780;25.948;2023-04-10T09:48:17;32.30;;;28.90;;
45274;SDS011;31019;43.780;25.948;2023-04-10T09:50:45;31.40;;;28.30;;
45274;SDS011;31019;43.780;25.948;2023-04-10T09:56:54;32.92;;;29.70;;
45274;SDS011;31019;43.780;25.948;2023-04-10T10:00:00;34.80;;;31.38;;
45274;SDS011;31019;43.780;25.948;2023-04-10T10:06:43;35.60;;;32.25;;
45274;SDS011;31019;43.780;25.948;2023-04-10T10:12:58;32.85;;;29.80;;
45274;SDS011;31019;43.780;25.948;2023-04-10T10:16:01;32.45;;;29.33;;
45274;SDS011;31019;43.780;25.948;2023-04-10T10:19:11;31.95;;;28.85;;
45274;SDS011;31019;43.780;25.948;2023-04-10T10:22:27;30.75;;;27.95;;
45274;SDS011;31019;43.780;25.948;2023-04-10T10:25:35;32.97;;;29.83;;
45274;SDS011;31019;43.780;25.948;2023-04-10T10:42:50;33.60;;;30.67;;
45274;SDS011;31019;43.780;25.948;2023-04-10T10:45:47;31.17;;;28.30;;
45274;SDS011;31019;43.780;25.948;2023-04-10T10:51:49;30.63;;;27.63;;
45274;SDS011;31019;43.780;25.948;2023-04-10T10:54:30;31.85;;;29.00;;
45274;SDS011;31019;43.780;25.948;2023-04-10T11:07:47;32.78;;;29.42;;
45274;SDS011;31019;43.780;25.948;2023-04-10T11:17:17;31.38;;;28.48;;
45274;SDS011;31019;43.780;25.948;2023-04-10T11:20:22;30.48;;;27.52;;
45274;SDS011;31019;43.780;25.948;2023-04-10T11:24:00;30.90;;;28.10;;
45274;SDS011;31019;43.780;25.948;2023-04-10T11:26:43;31.17;;;28.33;;
45274;SDS011;31019;43.780;25.948;2023-04-10T11:29:35;29.73;;;26.92;;
45274;SDS011;31019;43.780;25.948;2023-04-10T11:32:02;29.00;;;26.40;;
45274;SDS011;31019;43.780;25.948;2023-04-10T11:34:30;29.00;;;26.50;;
45274;SDS011;31019;43.780;25.948;2023-04-10T11:36:57;30.05;;;27.45;;
45274;SDS011;31019;43.780;25.948;2023-04-10T11:39:27;31.73;;;28.98;;
45274;SDS011;31019;43.780;25.948;2023-04-10T11:41:54;28.95;;;26.45;;
45274;SDS011;31019;43.780;25.948;2023-04-10T11:44:28;31.45;;;28.60;;
45274;SDS011;31019;43.780;25.948;2023-04-10T11:46:57;30.33;;;27.70;;
45274;SDS011;31019;43.780;25.948;2023-04-10T11:49:25;28.98;;;26.58;;
45274;SDS011;31019;43.780;25.948;2023-04-10T11:51:52;29.20;;;26.50;;
45274;SDS011;31019;43.780;25.948;2023-04-10T11:54:20;30.50;;;27.65;;
45274;SDS011;31019;43.780;25.948;2023-04-10T11:56:55;30.17;;;27.50;;
45274;SDS011;31019;43.780;25.948;2023-04-10T11:59:28;29.33;;;26.80;;
45274;SDS011;31019;43.780;25.948;2023-04-10T12:02:03;29.92;;;27.25;;
45274;SDS011;31019;43.780;25.948;2023-04-10T12:04:32;30.55;;;27.95;;
45274;SDS011;31019;43.780;25.948;2023-04-10T12:06:59;28.25;;;25.58;;
45274;SDS011;31019;43.780;25.948;2023-04-10T12:09:26;29.33;;;26.58;;
45274;SDS011;31019;43.780;25.948;2023-04-10T12:11:53;28.15;;;25.50;;
45274;SDS011;31019;43.780;25.948;2023-04-10T12:14:27;29.73;;;26.70;;
45274;SDS011;31019;43.780;25.948;2023-04-10T12:16:55;27.17;;;24.67;;
45274;SDS011;31019;43.780;25.948;2023-04-10T12:19:25;27.27;;;24.92;;
45274;SDS011;31019;43.780;25.948;2023-04-10T12:21:52;27.52;;;25.17;;
45274;SDS011;31019;43.780;25.948;2023-04-10T12:27:15;28.67;;;25.98;;
45274;SDS011;31019;43.780;25.948;2023-04-10T12:29:43;31.85;;;29.15;;
45274;SDS011;31019;43.780;25.948;2023-04-10T12:32:10;29.48;;;26.88;;
45274;SDS011;31019;43.780;25.948;2023-04-10T12:34:38;28.35;;;25.95;;
45274;SDS011;31019;43.780;25.948;2023-04-10T12:37:05;27.17;;;24.67;;
45274;SDS011;31019;43.780;25.948;2023-04-10T12:39:33;29.63;;;27.23;;
45274;SDS011;31019;43.780;25.948;2023-04-10T12:42:10;27.38;;;24.90;;
45274;SDS011;31019;43.780;25.948;2023-04-10T12:44:48;27.20;;;24.73;;
45274;SDS011;31019;43.780;25.948;2023-04-10T12:47:15;25.50;;;23.23;;
45274;SDS011;31019;43.780;25.948;2023-04-10T12:52:32;26.42;;;24.20;;
45274;SDS011;31019;43.780;25.948;2023-04-10T12:55:10;24.63;;;22.45;;
45274;SDS011;31019;43.780;25.948;2023-04-10T12:57:38;26.13;;;23.80;;
45274;SDS011;31019;43.780;25.948;2023-04-10T13:00:09;26.67;;;24.33;;
45274;SDS011;31019;43.780;25.948;2023-04-10T13:02:37;27.70;;;25.02;;
45274;SDS011;31019;43.780;25.948;2023-04-10T13:05:07;27.15;;;24.75;;
45274;SDS011;31019;43.780;25.948;2023-04-10T13:07:35;26.45;;;24.00;;
45274;SDS011;31019;43.780;25.948;2023-04-10T13:10:02;25.77;;;23.58;;
45274;SDS011;31019;43.780;25.948;2023-04-10T13:12:31;26.65;;;24.25;;
45274;SDS011;31019;43.780;25.948;2023-04-10T13:14:59;26.20;;;23.80;;
45274;SDS011;31019;43.780;25.948;2023-04-10T13:17:25;28.67;;;26.25;;
45274;SDS011;31019;43.780;25.948;2023-04-10T13:19:52;26.80;;;24.33;;
45274;SDS011;31019;43.780;25.948;2023-04-10T13:22:21;27.52;;;24.83;;
45274;SDS011;31019;43.780;25.948;2023-04-10T13:24:48;25.63;;;23.23;;
45274;SDS011;31019;43.780;25.948;2023-04-10T13:27:14;25.67;;;23.40;;
45274;SDS011;31019;43.780;25.948;2023-04-10T13:29:41;26.33;;;23.90;;
45274;SDS011;31019;43.780;25.948;2023-04-10T13:32:08;26.40;;;24.10;;
45274;SDS011;31019;43.780;25.948;2023-04-10T13:34:35;25.90;;;23.73;;
45274;SDS011;31019;43.780;25.948;2023-04-10T13:37:02;27.77;;;25.38;;
45274;SDS011;31019;43.780;25.948;2023-04-10T13:39:30;27.63;;;25.10;;
45274;SDS011;31019;43.780;25.948;2023-04-10T13:41:57;27.27;;;24.77;;
45274;SDS011;31019;43.780;25.948;2023-04-10T13:44:26;27.25;;;24.98;;
45274;SDS011;31019;43.780;25.948;2023-04-10T13:46:53;27.58;;;25.13;;
45274;SDS011;31019;43.780;25.948;2023-04-10T13:49:19;28.25;;;25.95;;
45274;SDS011;31019;43.780;25.948;2023-04-10T13:51:46;27.92;;;25.55;;
45274;SDS011;31019;43.780;25.948;2023-04-10T13:54:14;27.77;;;25.27;;
45274;SDS011;31019;43.780;25.948;2023-04-10T13:56:46;27.55;;;25.23;;
45274;SDS011;31019;43.780;25.948;2023-04-10T13:59:13;26.67;;;24.27;;
45274;SDS011;31019;43.780;25.948;2023-04-10T14:01:40;27.13;;;24.85;;
45274;SDS011;31019;43.780;25.948;2023-04-10T14:04:07;26.42;;;24.13;;
45274;SDS011;31019;43.780;25.948;2023-04-10T14:06:34;26.85;;;24.55;;
45274;SDS011;31019;43.780;25.948;2023-04-10T14:09:01;29.90;;;27.42;;
45274;SDS011;31019;43.780;25.948;2023-04-10T14:11:28;26.67;;;24.17;;
45274;SDS011;31019;43.780;25.948;2023-04-10T14:13:56;26.83;;;24.50;;
45274;SDS011;31019;43.780;25.948;2023-04-10T14:16:23;27.45;;;24.95;;
45274;SDS011;31019;43.780;25.948;2023-04-10T14:18:50;25.70;;;23.40;;
45274;SDS011;31019;43.780;25.948;2023-04-10T14:21:16;27.38;;;25.17;;
45274;SDS011;31019;43.780;25.948;2023-04-10T14:23:43;26.20;;;23.95;;
45274;SDS011;31019;43.780;25.948;2023-04-10T14:26:10;26.42;;;24.13;;
45274;SDS011;31019;43.780;25.948;2023-04-10T14:28:37;27.23;;;25.08;;
45274;SDS011;31019;43.780;25.948;2023-04-10T14:38:02;26.30;;;24.10;;
45274;SDS011;31019;43.780;25.948;2023-04-10T14:59:26;27.17;;;24.92;;
45274;SDS011;31019;43.780;25.948;2023-04-10T15:01:53;27.95;;;25.45;;
45274;SDS011;31019;43.780;25.948;2023-04-10T15:04:20;29.50;;;27.20;;
45274;SDS011;31019;43.780;25.948;2023-04-10T15:06:46;27.27;;;24.98;;
45274;SDS011;31019;43.780;25.948;2023-04-10T15:09:13;27.70;;;25.20;;
45274;SDS011;31019;43.780;25.948;2023-04-10T15:11:40;27.10;;;24.67;;
45274;SDS011;31019;43.780;25.948;2023-04-10T15:14:07;30.83;;;27.02;;
45274;SDS011;31019;43.780;25.948;2023-04-10T15:16:37;27.00;;;24.50;;
45274;SDS011;31019;43.780;25.948;2023-04-10T15:19:04;26.67;;;24.10;;
45274;SDS011;31019;43.780;25.948;2023-04-10T15:21:31;27.65;;;24.90;;
45274;SDS011;31019;43.780;25.948;2023-04-10T15:23:57;26.67;;;24.33;;
45274;SDS011;31019;43.780;25.948;2023-04-10T15:26:25;30.00;;;27.60;;
45274;SDS011;31019;43.780;25.948;2023-04-10T15:28:52;32.15;;;29.55;;
45274;SDS011;31019;43.780;25.948;2023-04-10T15:31:20;39.58;;;36.78;;
45274;SDS011;31019;43.780;25.948;2023-04-10T15:33:49;38.78;;;35.88;;
45274;SDS011;31019;43.780;25.948;2023-04-10T15:36:16;39.83;;;36.80;;
45274;SDS011;31019;43.780;25.948;2023-04-10T15:38:43;40.92;;;37.63;;
45274;SDS011;31019;43.780;25.948;2023-04-10T15:41:10;40.20;;;37.10;;
45274;SDS011;31019;43.780;25.948;2023-04-10T15:43:38;46.63;;;43.22;;
45274;SDS011;31019;43.780;25.948;2023-04-10T15:46:06;41.50;;;38.30;;
45274;SDS011;31019;43.780;25.948;2023-04-10T15:48:33;40.60;;;37.50;;
45274;SDS011;31019;43.780;25.948;2023-04-10T15:51:05;40.08;;;36.88;;
45274;SDS011;31019;43.780;25.948;2023-04-10T15:53:32;40.30;;;37.10;;
45274;SDS011;31019;43.780;25.948;2023-04-10T15:55:59;42.67;;;39.28;;
45274;SDS011;31019;43.780;25.948;2023-04-10T15:58:28;41.97;;;38.53;;
45274;SDS011;31019;43.780;25.948;2023-04-10T16:00:55;39.65;;;36.33;;
45274;SDS011;31019;43.780;25.948;2023-04-10T16:03:22;42.33;;;38.78;;
45274;SDS011;31019;43.780;25.948;2023-04-10T16:05:50;29.92;;;27.30;;
45274;SDS011;31019;43.780;25.948;2023-04-10T16:08:19;32.58;;;29.65;;
45274;SDS011;31019;43.780;25.948;2023-04-10T16:10:45;34.28;;;31.38;;
45274;SDS011;31019;43.780;25.948;2023-04-10T16:13:12;32.60;;;29.80;;
45274;SDS011;31019;43.780;25.948;2023-04-10T16:15:39;36.40;;;33.20;;
45274;SDS011;31019;43.780;25.948;2023-04-10T16:18:06;38.65;;;35.58;;
45274;SDS011;31019;43.780;25.948;2023-04-10T16:20:33;41.97;;;38.67;;